Time;durP1;ratioP1;P1;durP2;ratioP2;P2;SDS_P1;SDS_P2;PMS_P1;PMS_P2;Temp;Humidity;BMP_temperature;BMP_pressure;BME280_temperature;BME280_humidity;BME280_pressure;Samples;Min_cycle;Max_cycle;Signal;HPM_P1;HPM_P2
2023/09/05 00:00:44;;;;;;;5.97;2.55;;;;;;;;;;5060145;28;20111;-87
2023/09/05 00:03:10;;;;;;;3.17;2.50;;;;;;;;;;5082519;28;20107;-85
2023/09/05 00:05:36;;;;;;;6.82;2.63;;;;;;;;;;5078539;28;20129;-84
2023/09/05 00:08:01;;;;;;;4.75;2.40;;;;;;;;;;5070481;28;20429;-85
2023/09/05 00:10:27;;;;;;;5.10;2.28;;;;;;;;;;5075530;28;20043;-87
2023/09/05 00:12:52;;;;;;;4.55;2.60;;;;;;;;;;5070309;28;20029;-85
2023/09/05 00:15:18;;;;;;;5.78;2.55;;;;;;;;;;5079345;28;20498;-84
2023/09/05 00:17:43;;;;;;;4.15;2.42;;;;;;;;;;5069694;28;20068;-83
2023/09/05 00:20:11;;;;;;;4.60;2.40;;;;;;;;;;5080652;28;20044;-84
2023/09/05 00:22:36;;;;;;;3.33;2.20;;;;;;;;;;5067802;28;20437;-85
2023/09/05 00:25:02;;;;;;;3.03;2.28;;;;;;;;;;5070370;28;20490;-85
2023/09/05 00:27:28;;;;;;;3.83;2.30;;;;;;;;;;5080896;28;20086;-85
2023/09/05 00:29:53;;;;;;;5.00;2.60;;;;;;;;;;5078008;28;20072;-86
2023/09/05 00:32:19;;;;;;;4.63;2.58;;;;;;;;;;5066969;28;20037;-84
2023/09/05 00:34:47;;;;;;;4.88;2.80;;;;;;;;;;5058095;28;20071;-85
2023/09/05 00:37:15;;;;;;;4.25;2.60;;;;;;;;;;5077336;28;20035;-86
2023/09/05 00:39:40;;;;;;;4.80;2.60;;;;;;;;;;5078923;28;20093;-86
2023/09/05 00:42:10;;;;;;;3.83;2.70;;;;;;;;;;5066231;28;20024;-85
2023/09/05 00:44:36;;;;;;;3.95;2.42;;;;;;;;;;5084391;28;20071;-84
2023/09/05 00:47:04;;;;;;;3.40;2.30;;;;;;;;;;5070780;28;20635;-84
2023/09/05 00:49:39;;;;;;;5.63;2.78;;;;;;;;;;5074704;28;20048;-84
2023/09/05 00:52:06;;;;;;;5.57;2.50;;;;;;;;;;5078334;28;20122;-85
2023/09/05 00:54:33;;;;;;;3.30;2.30;;;;;;;;;;5061920;28;20031;-84
2023/09/05 00:56:59;;;;;;;4.40;2.28;;;;;;;;;;5063685;28;20039;-84
2023/09/05 00:59:25;;;;;;;4.15;2.40;;;;;;;;;;5060805;28;20039;-86
2023/09/05 01:01:51;;;;;;;3.55;2.42;;;;;;;;;;5100167;28;20035;-84
2023/09/05 01:04:17;;;;;;;4.50;2.30;;;;;;;;;;5076710;28;20393;-84
2023/09/05 01:07:03;;;;;;;5.65;2.30;;;;;;;;;;5066033;28;20483;-84
2023/09/05 01:09:48;;;;;;;4.68;2.35;;;;;;;;;;5067783;28;20040;-86
2023/09/05 01:12:14;;;;;;;7.38;2.50;;;;;;;;;;5078104;28;20099;-85
2023/09/05 01:14:40;;;;;;;4.95;2.58;;;;;;;;;;5073204;28;20045;-85
2023/09/05 01:17:05;;;;;;;4.00;2.33;;;;;;;;;;5069828;28;20091;-87
2023/09/05 01:19:36;;;;;;;4.05;2.45;;;;;;;;;;5075351;28;20067;-84
2023/09/05 01:22:13;;;;;;;3.10;2.20;;;;;;;;;;5064729;28;20073;-85
2023/09/05 01:24:40;;;;;;;3.33;2.22;;;;;;;;;;5071271;28;20043;-85
2023/09/05 01:27:07;;;;;;;4.07;2.30;;;;;;;;;;5081692;28;20045;-86
2023/09/05 01:29:39;;;;;;;5.00;2.47;;;;;;;;;;5061114;28;20033;-84
2023/09/05 01:32:09;;;;;;;3.67;2.20;;;;;;;;;;5063585;28;20402;-84
2023/09/05 01:34:35;;;;;;;7.10;2.30;;;;;;;;;;5081870;28;20133;-87
2023/09/05 01:37:00;;;;;;;2.85;2.13;;;;;;;;;;5087078;28;20078;-84
2023/09/05 01:39:25;;;;;;;3.42;2.20;;;;;;;;;;5075187;28;20060;-86
2023/09/05 01:41:52;;;;;;;3.30;2.13;;;;;;;;;;5078293;28;20032;-85
2023/09/05 01:44:18;;;;;;;6.70;2.67;;;;;;;;;;5073453;28;20025;-86
2023/09/05 01:46:43;;;;;;;4.53;2.50;;;;;;;;;;5081232;28;20059;-85
2023/09/05 01:49:09;;;;;;;3.92;2.40;;;;;;;;;;5068933;28;20064;-84
2023/09/05 01:51:34;;;;;;;5.18;2.22;;;;;;;;;;5079674;28;20035;-86
2023/09/05 01:54:00;;;;;;;7.78;2.60;;;;;;;;;;5076465;28;20033;-84
2023/09/05 01:56:25;;;;;;;4.85;2.40;;;;;;;;;;5047014;28;20107;-86
2023/09/05 01:58:51;;;;;;;6.90;2.65;;;;;;;;;;5080381;28;20113;-87
2023/09/05 02:01:16;;;;;;;5.80;2.47;;;;;;;;;;5098156;28;20453;-86
2023/09/05 02:03:42;;;;;;;5.35;2.40;;;;;;;;;;5071834;28;20043;-84
2023/09/05 02:06:07;;;;;;;3.67;2.33;;;;;;;;;;5062395;28;20040;-85
2023/09/05 02:08:36;;;;;;;4.30;2.25;;;;;;;;;;5064610;28;20046;-87
2023/09/05 02:11:02;;;;;;;5.57;2.47;;;;;;;;;;5082750;28;20035;-86
2023/09/05 02:13:31;;;;;;;3.65;2.60;;;;;;;;;;5071349;28;20039;-83
2023/09/05 02:15:57;;;;;;;3.60;2.45;;;;;;;;;;5073484;28;20070;-85
2023/09/05 02:18:23;;;;;;;2.97;2.30;;;;;;;;;;5075883;28;20028;-87
2023/09/05 02:20:49;;;;;;;6.55;2.50;;;;;;;;;;5081680;28;20098;-86
2023/09/05 02:23:14;;;;;;;5.13;2.38;;;;;;;;;;5076793;28;20040;-85
2023/09/05 02:25:41;;;;;;;3.85;2.10;;;;;;;;;;5084423;28;20043;-84
2023/09/05 02:28:07;;;;;;;5.32;2.30;;;;;;;;;;5077767;28;20043;-85
2023/09/05 02:30:32;;;;;;;4.90;2.40;;;;;;;;;;5066731;28;20036;-84
2023/09/05 02:32:58;;;;;;;8.63;2.40;;;;;;;;;;5086075;28;20039;-84
2023/09/05 02:35:25;;;;;;;5.32;2.50;;;;;;;;;;5086929;28;20025;-84
2023/09/05 02:37:52;;;;;;;4.03;2.30;;;;;;;;;;5069960;28;20112;-85
2023/09/05 02:40:18;;;;;;;3.13;2.20;;;;;;;;;;5050512;28;20043;-86
2023/09/05 02:42:44;;;;;;;4.05;2.45;;;;;;;;;;5082234;28;20028;-85
2023/09/05 02:45:11;;;;;;;5.80;2.35;;;;;;;;;;5083367;28;20520;-87
2023/09/05 02:47:36;;;;;;;6.00;2.80;;;;;;;;;;5069223;28;20490;-85
2023/09/05 02:50:02;;;;;;;4.97;3.22;;;;;;;;;;5077095;28;20040;-84
2023/09/05 02:52:29;;;;;;;9.13;3.80;;;;;;;;;;5070661;28;20516;-84
2023/09/05 02:54:55;;;;;;;5.82;2.50;;;;;;;;;;5079243;28;20028;-85
2023/09/05 02:57:21;;;;;;;4.10;2.45;;;;;;;;;;5079125;28;20035;-86
2023/09/05 02:59:50;;;;;;;4.05;2.75;;;;;;;;;;5083298;28;20028;-85
2023/09/05 03:02:16;;;;;;;6.03;2.53;;;;;;;;;;5077546;28;20032;-86
2023/09/05 03:04:41;;;;;;;4.07;2.42;;;;;;;;;;5059040;28;20090;-85
2023/09/05 03:07:07;;;;;;;5.82;2.20;;;;;;;;;;5087990;28;20033;-86
2023/09/05 03:09:33;;;;;;;6.75;2.00;;;;;;;;;;5076409;28;20037;-86
2023/09/05 03:11:58;;;;;;;3.80;2.33;;;;;;;;;;5064449;28;20029;-84
2023/09/05 03:14:25;;;;;;;4.82;2.40;;;;;;;;;;5065505;28;20709;-86
2023/09/05 03:16:50;;;;;;;4.45;2.17;;;;;;;;;;5087278;28;20054;-85
2023/09/05 03:19:16;;;;;;;3.58;2.20;;;;;;;;;;5082334;28;20044;-85
2023/09/05 03:21:42;;;;;;;4.82;2.45;;;;;;;;;;5072885;28;20039;-85
2023/09/05 03:24:07;;;;;;;3.88;2.17;;;;;;;;;;5081628;28;20046;-86
2023/09/05 03:26:33;;;;;;;3.40;2.08;;;;;;;;;;5066615;28;20029;-84
2023/09/05 03:28:59;;;;;;;4.28;1.85;;;;;;;;;;5077205;28;20486;-87
2023/09/05 03:31:28;;;;;;;3.35;2.10;;;;;;;;;;5079181;28;20047;-86
2023/09/05 03:33:55;;;;;;;5.13;1.80;;;;;;;;;;5082361;28;20044;-86
2023/09/05 03:36:26;;;;;;;4.03;2.10;;;;;;;;;;5076148;28;20036;-84
2023/09/05 03:38:52;;;;;;;2.85;2.05;;;;;;;;;;5061378;28;20039;-85
2023/09/05 03:41:17;;;;;;;3.17;2.10;;;;;;;;;;5086504;28;20037;-84
2023/09/05 03:43:43;;;;;;;3.47;2.17;;;;;;;;;;5062152;28;20036;-83
2023/09/05 03:46:08;;;;;;;2.63;1.88;;;;;;;;;;5064004;28;20037;-86
2023/09/05 03:48:34;;;;;;;3.33;2.30;;;;;;;;;;5071340;28;20115;-83
2023/09/05 03:50:59;;;;;;;5.82;2.20;;;;;;;;;;5090551;28;20032;-84
2023/09/05 03:53:25;;;;;;;2.83;2.17;;;;;;;;;;5076024;28;20494;-84
2023/09/05 03:55:51;;;;;;;3.80;2.20;;;;;;;;;;5070500;28;20036;-84
2023/09/05 03:58:17;;;;;;;4.18;2.20;;;;;;;;;;5054810;28;20028;-86
2023/09/05 04:00:42;;;;;;;2.65;1.95;;;;;;;;;;5062471;28;20071;-84
2023/09/05 04:03:10;;;;;;;2.80;2.10;;;;;;;;;;5070276;28;20035;-85
2023/09/05 04:05:36;;;;;;;5.80;2.30;;;;;;;;;;5083378;28;20115;-85
2023/09/05 04:08:05;;;;;;;3.33;2.13;;;;;;;;;;5079055;28;20470;-83
2023/09/05 04:10:31;;;;;;;3.63;2.17;;;;;;;;;;5073498;28;20080;-85
2023/09/05 04:12:56;;;;;;;4.55;2.90;;;;;;;;;;5065086;28;20040;-83
2023/09/05 04:15:22;;;;;;;3.63;2.42;;;;;;;;;;5099696;28;20839;-84
2023/09/05 04:17:50;;;;;;;4.63;2.20;;;;;;;;;;5076139;28;20039;-86
2023/09/05 04:20:16;;;;;;;4.32;2.88;;;;;;;;;;5071687;28;20033;-84
2023/09/05 04:22:42;;;;;;;4.00;2.40;;;;;;;;;;5074084;28;20043;-84
2023/09/05 04:25:07;;;;;;;4.35;2.30;;;;;;;;;;5067749;28;20190;-86
2023/09/05 04:27:33;;;;;;;4.10;2.20;;;;;;;;;;5073983;28;20040;-85
2023/09/05 04:29:59;;;;;;;5.18;2.33;;;;;;;;;;5075543;28;20028;-86
2023/09/05 04:32:42;;;;;;;6.55;2.40;;;;;;;;;;5088072;28;20058;-86
2023/09/05 04:35:09;;;;;;;4.63;2.10;;;;;;;;;;5077706;28;20037;-87
2023/09/05 04:37:36;;;;;;;2.38;1.92;;;;;;;;;;5081188;28;20048;-85
2023/09/05 04:40:04;;;;;;;5.65;2.50;;;;;;;;;;5088784;28;20028;-86
2023/09/05 04:42:29;;;;;;;4.00;2.05;;;;;;;;;;5073257;28;20032;-85
2023/09/05 04:44:55;;;;;;;4.40;2.42;;;;;;;;;;5062675;28;20127;-85
2023/09/05 04:47:24;;;;;;;3.72;2.40;;;;;;;;;;5076175;28;20036;-85
2023/09/05 04:49:55;;;;;;;3.60;2.50;;;;;;;;;;5078672;28;20537;-85
2023/09/05 04:52:26;;;;;;;6.78;2.85;;;;;;;;;;5085886;28;20049;-85
2023/09/05 04:54:53;;;;;;;3.80;2.50;;;;;;;;;;5069516;28;20033;-87
2023/09/05 04:57:19;;;;;;;2.97;2.13;;;;;;;;;;5068199;28;20032;-85
2023/09/05 04:59:47;;;;;;;3.03;2.05;;;;;;;;;;5070754;28;20455;-85
2023/09/05 05:02:16;;;;;;;5.00;2.50;;;;;;;;;;5071910;28;20107;-84
2023/09/05 05:04:43;;;;;;;7.00;2.58;;;;;;;;;;5078832;28;20039;-85
2023/09/05 05:07:09;;;;;;;5.53;2.22;;;;;;;;;;5081729;28;20493;-88
2023/09/05 05:09:35;;;;;;;4.57;2.40;;;;;;;;;;5066650;28;20029;-86
2023/09/05 05:12:01;;;;;;;3.05;2.20;;;;;;;;;;5091004;28;20509;-86
2023/09/05 05:14:28;;;;;;;2.90;1.92;;;;;;;;;;5099120;28;20068;-86
2023/09/05 05:16:53;;;;;;;2.95;1.90;;;;;;;;;;5079858;28;20163;-87
2023/09/05 05:19:22;;;;;;;3.78;2.33;;;;;;;;;;5060344;28;20686;-87
2023/09/05 05:21:52;;;;;;;4.15;2.20;;;;;;;;;;5064639;28;20035;-86
2023/09/05 05:24:18;;;;;;;6.20;2.30;;;;;;;;;;5083794;28;20071;-86
2023/09/05 05:26:44;;;;;;;4.68;2.30;;;;;;;;;;5068543;28;20083;-84
2023/09/05 05:29:10;;;;;;;5.57;2.30;;;;;;;;;;5079527;28;20052;-85
2023/09/05 05:31:37;;;;;;;4.82;2.08;;;;;;;;;;5070646;28;20696;-84
2023/09/05 05:34:03;;;;;;;4.60;2.03;;;;;;;;;;5088126;28;20056;-86
2023/09/05 05:36:29;;;;;;;3.67;2.17;;;;;;;;;;5075223;28;20149;-86
2023/09/05 05:39:02;;;;;;;6.18;2.45;;;;;;;;;;5094778;28;20075;-84
2023/09/05 05:41:28;;;;;;;7.65;2.60;;;;;;;;;;5068063;28;20090;-86
2023/09/05 05:43:57;;;;;;;5.07;2.42;;;;;;;;;;5060666;28;20045;-86
2023/09/05 05:46:23;;;;;;;5.25;2.40;;;;;;;;;;5086851;28;20036;-85
2023/09/05 05:48:48;;;;;;;7.60;2.80;;;;;;;;;;5079097;28;20066;-85
2023/09/05 05:51:14;;;;;;;4.53;2.60;;;;;;;;;;5070537;28;20108;-84
2023/09/05 05:53:41;;;;;;;6.30;2.58;;;;;;;;;;5081323;28;20044;-84
2023/09/05 05:56:08;;;;;;;5.97;2.72;;;;;;;;;;5077288;28;20511;-84
2023/09/05 05:58:34;;;;;;;5.07;2.35;;;;;;;;;;5079083;28;20059;-88
2023/09/05 06:01:00;;;;;;;4.70;2.25;;;;;;;;;;5081780;28;20036;-87
2023/09/05 06:03:25;;;;;;;4.35;2.20;;;;;;;;;;5079628;28;20492;-86
2023/09/05 06:05:51;;;;;;;4.20;2.78;;;;;;;;;;5068178;28;20036;-86
2023/09/05 06:08:17;;;;;;;5.43;2.67;;;;;;;;;;5075405;28;20456;-85
2023/09/05 06:10:43;;;;;;;3.45;2.50;;;;;;;;;;5086047;28;20098;-86
2023/09/05 06:13:11;;;;;;;5.53;2.50;;;;;;;;;;5079634;28;20048;-87
2023/09/05 06:15:37;;;;;;;5.07;2.40;;;;;;;;;;5070697;28;20032;-86
2023/09/05 06:18:04;;;;;;;6.60;2.45;;;;;;;;;;5068165;28;20108;-84
2023/09/05 06:20:29;;;;;;;4.60;2.50;;;;;;;;;;5088474;28;20036;-87
2023/09/05 06:22:55;;;;;;;5.47;2.22;;;;;;;;;;5082322;28;20092;-85
2023/09/05 06:25:21;;;;;;;5.55;2.50;;;;;;;;;;5072084;28;20096;-85
2023/09/05 06:27:47;;;;;;;3.22;2.10;;;;;;;;;;5076994;28;20036;-85
2023/09/05 06:30:13;;;;;;;4.65;2.65;;;;;;;;;;5073143;28;20046;-84
2023/09/05 06:32:39;;;;;;;4.20;2.50;;;;;;;;;;5074539;28;20406;-86
2023/09/05 06:35:05;;;;;;;6.72;2.50;;;;;;;;;;5075506;28;20588;-85
2023/09/05 06:37:33;;;;;;;5.18;2.30;;;;;;;;;;5073770;28;20044;-84
2023/09/05 06:40:09;;;;;;;3.60;2.30;;;;;;;;;;5072603;28;20037;-85
2023/09/05 06:42:36;;;;;;;3.65;2.30;;;;;;;;;;5075139;28;20682;-84
2023/09/05 06:45:03;;;;;;;4.20;2.38;;;;;;;;;;5085091;28;20471;-87
2023/09/05 06:47:29;;;;;;;6.43;2.40;;;;;;;;;;5083754;28;20032;-87
2023/09/05 06:49:54;;;;;;;3.95;2.40;;;;;;;;;;5064286;28;20032;-87
2023/09/05 06:52:20;;;;;;;3.63;2.15;;;;;;;;;;5071744;28;20490;-84
2023/09/05 06:54:45;;;;;;;4.60;2.40;;;;;;;;;;5084062;28;20043;-85
2023/09/05 06:57:11;;;;;;;4.88;2.40;;;;;;;;;;5073392;28;20139;-85
2023/09/05 06:59:36;;;;;;;5.00;2.20;;;;;;;;;;5071904;28;20044;-84
2023/09/05 07:02:02;;;;;;;4.30;2.15;;;;;;;;;;5076844;28;20035;-86
2023/09/05 07:04:31;;;;;;;3.78;2.25;;;;;;;;;;5086160;28;20025;-87
2023/09/05 07:07:01;;;;;;;3.97;2.17;;;;;;;;;;5070759;28;20040;-84
2023/09/05 07:09:27;;;;;;;6.63;2.50;;;;;;;;;;5094392;28;20113;-84
2023/09/05 07:11:52;;;;;;;3.15;2.03;;;;;;;;;;5074742;28;20052;-85
2023/09/05 07:14:18;;;;;;;6.50;2.00;;;;;;;;;;5076589;28;20403;-86
2023/09/05 07:16:43;;;;;;;4.30;2.17;;;;;;;;;;5079249;28;20083;-86
2023/09/05 07:19:09;;;;;;;4.43;2.13;;;;;;;;;;5082998;28;20031;-86
2023/09/05 07:21:37;;;;;;;3.83;2.00;;;;;;;;;;5074225;28;20023;-85
2023/09/05 07:24:03;;;;;;;3.15;2.20;;;;;;;;;;5079255;28;20043;-85
2023/09/05 07:26:28;;;;;;;3.65;2.05;;;;;;;;;;5077134;28;20032;-84
2023/09/05 07:28:54;;;;;;;4.05;2.50;;;;;;;;;;5082469;28;20499;-85
2023/09/05 07:31:19;;;;;;;2.85;2.05;;;;;;;;;;5069775;28;20037;-85
2023/09/05 07:33:45;;;;;;;3.40;2.20;;;;;;;;;;5076991;28;20039;-84
2023/09/05 07:36:10;;;;;;;3.38;2.05;;;;;;;;;;5086217;28;20543;-84
2023/09/05 07:38:36;;;;;;;3.30;2.20;;;;;;;;;;5073096;28;20033;-85
2023/09/05 07:41:05;;;;;;;3.00;2.20;;;;;;;;;;5075260;28;20028;-85
2023/09/05 07:43:34;;;;;;;3.22;2.10;;;;;;;;;;5079792;28;20053;-84
2023/09/05 07:46:00;;;;;;;3.92;2.10;;;;;;;;;;5077266;28;20060;-84
2023/09/05 07:48:25;;;;;;;2.47;1.95;;;;;;;;;;5057146;28;20035;-86
2023/09/05 07:50:51;;;;;;;2.67;1.90;;;;;;;;;;5082264;28;20392;-85
2023/09/05 07:53:16;;;;;;;2.60;1.95;;;;;;;;;;5078685;28;20040;-84
2023/09/05 07:55:42;;;;;;;4.13;2.03;;;;;;;;;;5068431;28;20466;-86
2023/09/05 07:58:08;;;;;;;3.05;2.10;;;;;;;;;;5068157;28;20046;-85
2023/09/05 08:00:34;;;;;;;3.05;2.08;;;;;;;;;;5073633;28;20040;-85
2023/09/05 08:03:03;;;;;;;2.53;2.03;;;;;;;;;;5087787;28;20060;-86
2023/09/05 08:05:29;;;;;;;4.65;2.15;;;;;;;;;;5068542;28;20051;-85
2023/09/05 08:07:54;;;;;;;2.90;2.13;;;;;;;;;;5076682;28;20119;-84
2023/09/05 08:10:20;;;;;;;4.18;2.15;;;;;;;;;;5083633;28;20167;-87
2023/09/05 08:12:45;;;;;;;3.88;2.25;;;;;;;;;;5063019;28;20029;-87
2023/09/05 08:15:11;;;;;;;4.55;2.28;;;;;;;;;;5064316;28;20046;-87
2023/09/05 08:17:36;;;;;;;3.22;2.03;;;;;;;;;;5073183;28;20044;-86
2023/09/05 08:20:04;;;;;;;4.55;2.30;;;;;;;;;;5066652;28;20036;-85
2023/09/05 08:22:29;;;;;;;3.65;2.30;;;;;;;;;;5060612;28;20440;-85
2023/09/05 08:24:55;;;;;;;3.50;2.42;;;;;;;;;;5090645;28;20036;-86
2023/09/05 08:27:28;;;;;;;3.00;2.30;;;;;;;;;;5075980;28;20127;-85
2023/09/05 08:29:55;;;;;;;7.78;2.60;;;;;;;;;;5065420;28;20066;-85
2023/09/05 08:32:21;;;;;;;2.90;2.35;;;;;;;;;;5070900;28;20068;-85
2023/09/05 08:34:46;;;;;;;3.58;2.47;;;;;;;;;;5064029;28;20493;-85
2023/09/05 08:37:12;;;;;;;4.65;2.33;;;;;;;;;;5090513;28;20445;-86
2023/09/05 08:39:38;;;;;;;4.78;2.70;;;;;;;;;;5072850;28;20048;-87
2023/09/05 08:42:06;;;;;;;3.50;2.55;;;;;;;;;;5077868;28;20118;-85
2023/09/05 08:44:37;;;;;;;3.83;2.50;;;;;;;;;;5068181;28;20037;-86
2023/09/05 08:47:03;;;;;;;3.67;2.60;;;;;;;;;;5062891;28;20072;-84
2023/09/05 08:49:29;;;;;;;3.92;2.60;;;;;;;;;;5100336;28;20056;-85
2023/09/05 08:51:57;;;;;;;4.50;2.70;;;;;;;;;;5074310;28;20036;-87
2023/09/05 08:54:24;;;;;;;4.53;2.75;;;;;;;;;;5062875;28;20036;-86
2023/09/05 08:56:51;;;;;;;3.75;2.83;;;;;;;;;;5065869;28;20038;-87
2023/09/05 08:59:16;;;;;;;5.75;2.72;;;;;;;;;;5074174;28;20064;-86
2023/09/05 09:01:44;;;;;;;4.75;2.83;;;;;;;;;;5073394;28;20072;-86
2023/09/05 09:04:09;;;;;;;4.80;2.65;;;;;;;;;;5067714;28;20047;-87
2023/09/05 09:06:36;;;;;;;5.15;3.00;;;;;;;;;;5075955;28;20041;-85
2023/09/05 09:09:03;;;;;;;6.93;2.78;;;;;;;;;;5065353;28;20094;-84
2023/09/05 09:11:29;;;;;;;3.88;3.13;;;;;;;;;;5074340;28;20458;-85
2023/09/05 09:13:59;;;;;;;4.68;3.05;;;;;;;;;;5081553;28;20118;-84
2023/09/05 09:16:25;;;;;;;4.00;2.78;;;;;;;;;;5073458;28;20071;-87
2023/09/05 09:19:01;;;;;;;5.80;2.90;;;;;;;;;;5060538;28;20147;-87
2023/09/05 09:21:29;;;;;;;4.57;3.03;;;;;;;;;;5065698;28;20550;-84
2023/09/05 09:23:59;;;;;;;3.17;2.42;;;;;;;;;;5081629;28;20020;-84
2023/09/05 09:26:28;;;;;;;3.70;2.60;;;;;;;;;;5070138;28;20118;-86
2023/09/05 09:28:53;;;;;;;4.07;2.90;;;;;;;;;;5058674;28;20048;-86
2023/09/05 09:31:25;;;;;;;3.75;2.78;;;;;;;;;;5069215;28;20045;-87
2023/09/05 09:33:56;;;;;;;4.18;2.88;;;;;;;;;;5089268;28;20028;-86
2023/09/05 09:36:21;;;;;;;6.65;2.83;;;;;;;;;;5065958;28;20513;-86
2023/09/05 09:38:47;;;;;;;3.05;2.53;;;;;;;;;;5074748;28;20028;-86
2023/09/05 09:41:14;;;;;;;3.92;2.85;;;;;;;;;;5084461;28;20086;-85
2023/09/05 09:43:40;;;;;;;5.13;2.65;;;;;;;;;;5060592;28;20474;-87
2023/09/05 09:46:08;;;;;;;4.78;2.80;;;;;;;;;;5075053;28;20093;-86
2023/09/05 09:48:35;;;;;;;4.75;2.72;;;;;;;;;;5095560;28;20033;-87
2023/09/05 09:51:04;;;;;;;5.30;2.80;;;;;;;;;;5071652;28;20116;-85
2023/09/05 09:53:30;;;;;;;3.72;2.70;;;;;;;;;;5059715;28;20040;-86
2023/09/05 09:55:57;;;;;;;3.58;2.65;;;;;;;;;;5082278;28;20454;-85
2023/09/05 09:58:25;;;;;;;4.00;2.60;;;;;;;;;;5083484;28;20039;-87
2023/09/05 10:00:51;;;;;;;3.83;2.67;;;;;;;;;;5071320;28;20056;-85
2023/09/05 10:03:18;;;;;;;4.53;2.60;;;;;;;;;;5077625;28;20398;-86
2023/09/05 10:05:45;;;;;;;5.20;3.03;;;;;;;;;;5070833;28;20055;-87
2023/09/05 10:08:11;;;;;;;3.67;2.83;;;;;;;;;;5078925;28;20028;-87
2023/09/05 10:10:41;;;;;;;3.80;2.97;;;;;;;;;;5076205;28;20093;-86
2023/09/05 10:13:08;;;;;;;3.15;2.50;;;;;;;;;;5081925;28;20101;-86
2023/09/05 10:15:36;;;;;;;4.13;2.60;;;;;;;;;;5071387;28;20092;-86
2023/09/05 10:18:02;;;;;;;5.20;2.65;;;;;;;;;;5063667;28;20034;-86
2023/09/05 10:20:28;;;;;;;5.68;2.70;;;;;;;;;;5069923;28;20035;-87
2023/09/05 10:22:53;;;;;;;6.25;2.80;;;;;;;;;;5078981;28;20020;-86
2023/09/05 10:25:20;;;;;;;3.92;2.63;;;;;;;;;;5069284;28;20038;-85
2023/09/05 10:27:46;;;;;;;8.27;2.90;;;;;;;;;;5062354;28;20153;-86
2023/09/05 10:30:12;;;;;;;6.10;2.60;;;;;;;;;;5080762;28;20084;-86
2023/09/05 10:32:44;;;;;;;3.80;2.50;;;;;;;;;;5080277;28;20041;-85
2023/09/05 10:35:15;;;;;;;3.60;2.65;;;;;;;;;;5067775;28;20041;-86
2023/09/05 10:37:50;;;;;;;4.47;2.50;;;;;;;;;;5074611;28;20075;-85
2023/09/05 10:40:17;;;;;;;4.32;2.80;;;;;;;;;;5066528;28;20483;-86
2023/09/05 10:42:54;;;;;;;4.38;2.65;;;;;;;;;;5091234;28;20032;-86
2023/09/05 10:45:23;;;;;;;5.70;2.70;;;;;;;;;;5077068;28;20047;-86
2023/09/05 10:47:54;;;;;;;5.00;2.70;;;;;;;;;;5060990;28;20032;-85
2023/09/05 10:50:22;;;;;;;4.43;2.42;;;;;;;;;;5072566;28;20040;-85
2023/09/05 10:53:10;;;;;;;5.47;2.75;;;;;;;;;;5063734;28;20440;-86
2023/09/05 10:55:44;;;;;;;7.15;2.30;;;;;;;;;;5094335;28;20040;-87
2023/09/05 10:58:51;;;;;;;4.85;2.60;;;;;;;;;;5070852;28;20055;-87
2023/09/05 11:01:34;;;;;;;5.13;2.78;;;;;;;;;;5060137;28;20029;-85
2023/09/05 11:04:03;;;;;;;;;;;;;;;;;;5076278;28;20021;-85
2023/09/05 11:06:30;;;;;;;3.15;2.65;;;;;;;;;;5077374;28;19928;-85
2023/09/05 11:09:04;;;;;;;5.47;2.70;;;;;;;;;;5069149;28;20079;-86
2023/09/05 11:11:30;;;;;;;5.30;2.70;;;;;;;;;;5076457;28;20036;-85
2023/09/05 11:13:57;;;;;;;4.90;2.70;;;;;;;;;;5072506;28;20040;-86
2023/09/05 11:16:22;;;;;;;5.53;2.60;;;;;;;;;;5074176;28;20521;-88
2023/09/05 11:18:55;;;;;;;4.60;2.72;;;;;;;;;;5094695;28;20071;-86
2023/09/05 11:21:22;;;;;;;5.47;2.78;;;;;;;;;;5076947;28;20621;-86
2023/09/05 11:23:55;;;;;;;5.38;2.50;;;;;;;;;;5065025;28;20051;-86
2023/09/05 11:26:21;;;;;;;4.13;2.75;;;;;;;;;;5048203;28;20039;-87
2023/09/05 11:28:51;;;;;;;3.35;2.53;;;;;;;;;;5098901;28;20113;-87
2023/09/05 11:31:17;;;;;;;3.78;2.55;;;;;;;;;;5069403;28;20064;-84
2023/09/05 11:33:45;;;;;;;4.20;2.80;;;;;;;;;;5062826;28;20052;-86
2023/09/05 11:36:11;;;;;;;3.35;2.67;;;;;;;;;;5074439;28;20043;-87
2023/09/05 11:38:47;;;;;;;3.70;2.58;;;;;;;;;;5079069;28;20033;-86
2023/09/05 11:41:14;;;;;;;3.70;2.78;;;;;;;;;;5072760;28;20121;-86
2023/09/05 11:43:54;;;;;;;3.85;2.80;;;;;;;;;;5076077;28;20115;-88
2023/09/05 11:46:22;;;;;;;3.85;2.55;;;;;;;;;;5071626;28;20066;-86
2023/09/05 11:48:49;;;;;;;6.53;2.70;;;;;;;;;;5064044;28;20457;-84
2023/09/05 11:51:16;;;;;;;4.82;2.63;;;;;;;;;;5079235;28;20132;-86
2023/09/05 11:53:45;;;;;;;4.72;2.60;;;;;;;;;;5097617;28;20049;-88
2023/09/05 11:56:11;;;;;;;5.00;2.85;;;;;;;;;;5071432;28;20043;-88
2023/09/05 11:58:37;;;;;;;5.60;2.90;;;;;;;;;;5060750;28;20725;-85
2023/09/05 12:01:03;;;;;;;5.90;2.80;;;;;;;;;;5071949;28;20123;-87
2023/09/05 12:03:30;;;;;;;5.53;2.97;;;;;;;;;;5077939;28;20115;-86
2023/09/05 12:05:56;;;;;;;4.50;2.85;;;;;;;;;;5068230;28;20044;-86
2023/09/05 12:08:22;;;;;;;3.85;2.72;;;;;;;;;;5081151;28;20024;-86
2023/09/05 12:10:51;;;;;;;5.05;2.95;;;;;;;;;;5070876;28;20098;-86
2023/09/05 12:13:36;;;;;;;3.15;2.53;;;;;;;;;;5071388;28;20036;-86
2023/09/05 12:16:03;;;;;;;5.15;2.75;;;;;;;;;;5075009;28;20047;-87
2023/09/05 12:18:28;;;;;;;4.15;3.00;;;;;;;;;;5077596;28;20036;-85
2023/09/05 12:21:00;;;;;;;7.57;2.80;;;;;;;;;;5073931;28;20194;-85
2023/09/05 12:23:29;;;;;;;6.25;2.90;;;;;;;;;;5062480;28;20029;-85
2023/09/05 12:25:56;;;;;;;4.40;2.90;;;;;;;;;;5081885;28;20047;-86
2023/09/05 12:28:24;;;;;;;4.47;3.00;;;;;;;;;;5074812;28;20036;-85
2023/09/05 12:30:50;;;;;;;4.78;2.75;;;;;;;;;;5065434;28;20081;-88
2023/09/05 12:33:17;;;;;;;4.07;2.80;;;;;;;;;;5070971;28;20036;-86
2023/09/05 12:35:43;;;;;;;4.25;2.53;;;;;;;;;;5048016;28;20109;-86
2023/09/05 12:38:12;;;;;;;3.72;2.65;;;;;;;;;;5074643;28;20043;-86
2023/09/05 12:40:39;;;;;;;4.75;2.60;;;;;;;;;;5066079;28;20118;-86
2023/09/05 12:43:05;;;;;;;4.03;2.92;;;;;;;;;;5074142;28;20526;-86
2023/09/05 12:45:32;;;;;;;4.10;2.78;;;;;;;;;;5063825;28;20064;-85
2023/09/05 12:47:58;;;;;;;3.92;2.45;;;;;;;;;;5071944;28;20495;-87
2023/09/05 12:50:29;;;;;;;3.97;2.80;;;;;;;;;;5077840;28;20033;-86
2023/09/05 12:53:01;;;;;;;4.60;2.70;;;;;;;;;;5077569;28;20539;-88
2023/09/05 12:55:27;;;;;;;4.95;2.60;;;;;;;;;;5062153;28;20052;-88
2023/09/05 12:57:53;;;;;;;4.13;2.50;;;;;;;;;;5073956;28;20036;-85
2023/09/05 13:00:19;;;;;;;6.57;2.90;;;;;;;;;;5098347;28;20042;-85
2023/09/05 13:02:44;;;;;;;7.85;2.90;;;;;;;;;;5072729;28;20029;-85
2023/09/05 13:05:12;;;;;;;5.50;2.90;;;;;;;;;;5061118;28;20040;-85
2023/09/05 13:07:38;;;;;;;3.63;2.50;;;;;;;;;;5068666;28;20045;-85
2023/09/05 13:10:04;;;;;;;3.63;2.65;;;;;;;;;;5075932;28;20028;-87
2023/09/05 13:12:29;;;;;;;5.10;2.80;;;;;;;;;;5071168;28;20029;-87
2023/09/05 13:14:55;;;;;;;4.95;2.80;;;;;;;;;;5072165;28;20125;-87
2023/09/05 13:17:21;;;;;;;5.05;2.70;;;;;;;;;;5070145;28;20040;-86
2023/09/05 13:19:47;;;;;;;5.10;2.70;;;;;;;;;;5042196;28;20094;-86
2023/09/05 13:22:12;;;;;;;7.68;2.58;;;;;;;;;;5081655;28;20020;-86
2023/09/05 13:24:39;;;;;;;6.40;2.72;;;;;;;;;;5086930;28;20497;-85
2023/09/05 13:27:05;;;;;;;4.25;2.60;;;;;;;;;;5057875;28;20477;-86
2023/09/05 13:29:30;;;;;;;3.95;2.80;;;;;;;;;;5063940;28;20093;-85
2023/09/05 13:31:56;;;;;;;4.55;2.67;;;;;;;;;;5081862;28;20040;-85
2023/09/05 13:34:22;;;;;;;5.53;2.70;;;;;;;;;;5084583;28;20516;-87
2023/09/05 13:36:47;;;;;;;3.20;2.67;;;;;;;;;;5080443;28;20040;-86
2023/09/05 13:39:13;;;;;;;4.47;2.72;;;;;;;;;;5075963;28;20041;-86
2023/09/05 13:41:39;;;;;;;3.85;2.60;;;;;;;;;;5076212;28;20039;-87
2023/09/05 13:44:04;;;;;;;5.53;2.83;;;;;;;;;;5080749;28;20201;-86
2023/09/05 13:46:32;;;;;;;4.22;2.67;;;;;;;;;;5076512;28;20044;-85
2023/09/05 13:48:58;;;;;;;5.15;2.35;;;;;;;;;;5077975;28;20123;-85
2023/09/05 13:51:23;;;;;;;5.53;2.90;;;;;;;;;;5065528;28;20134;-86
2023/09/05 13:53:49;;;;;;;3.40;2.55;;;;;;;;;;5066592;28;20045;-85
2023/09/05 13:56:15;;;;;;;3.75;2.60;;;;;;;;;;5079007;28;20021;-87
2023/09/05 13:58:41;;;;;;;7.43;2.97;;;;;;;;;;5089536;28;20044;-86
2023/09/05 14:01:06;;;;;;;4.65;3.00;;;;;;;;;;5073155;28;20027;-86
2023/09/05 14:03:32;;;;;;;7.15;3.00;;;;;;;;;;5064878;28;20100;-86
2023/09/05 14:05:57;;;;;;;5.07;2.90;;;;;;;;;;5078362;28;20043;-86
2023/09/05 14:08:24;;;;;;;3.97;2.42;;;;;;;;;;5087784;28;20474;-87
2023/09/05 14:10:51;;;;;;;4.15;2.70;;;;;;;;;;5073417;28;20589;-85
2023/09/05 14:13:17;;;;;;;4.18;2.83;;;;;;;;;;5071918;28;20128;-86
2023/09/05 14:15:43;;;;;;;4.15;2.80;;;;;;;;;;5096087;28;20060;-85
2023/09/05 14:18:09;;;;;;;6.05;2.75;;;;;;;;;;5099670;28;20020;-86
2023/09/05 14:20:35;;;;;;;5.45;2.80;;;;;;;;;;5080712;28;20040;-85
2023/09/05 14:23:00;;;;;;;3.53;2.60;;;;;;;;;;5085484;28;20035;-85
2023/09/05 14:25:26;;;;;;;3.58;2.53;;;;;;;;;;5077667;28;20033;-86
2023/09/05 14:27:51;;;;;;;4.65;2.63;;;;;;;;;;5065780;28;20037;-86
2023/09/05 14:30:17;;;;;;;3.95;2.70;;;;;;;;;;5083946;28;20052;-86
2023/09/05 14:32:43;;;;;;;4.30;2.92;;;;;;;;;;5090552;28;20490;-86
2023/09/05 14:35:09;;;;;;;3.20;2.50;;;;;;;;;;5090696;28;20048;-85
2023/09/05 14:37:34;;;;;;;4.78;3.00;;;;;;;;;;5068484;28;20040;-86
2023/09/05 14:40:00;;;;;;;5.32;2.63;;;;;;;;;;5087088;28;20099;-85
2023/09/05 14:42:27;;;;;;;6.80;2.75;;;;;;;;;;5091052;28;20029;-84